Аэропорт: Храброво. Калининград

ICAO: UMKK

METAR:
2019/01/21 22:30
UMKK 212230Z 22004MPS 6000 BKN026 M04/M05 Q1017 R24/690348 NOSIG RMK QFE762/1016
METAR:
2019/01/21 21:24
TAF TAF UMKK 211959Z 2121/2221 21005MPS 5000 BR BKN011 
      TEMPO 2121/2212 3100 -SN BR BKN006 
      BECMG 2123/2201 18003G08MPS